sensor_id;sensor_type;location;lat;lon;timestamp;temperature;humidity
18291;DHT22;9271;48.590;8.866;2023-04-25T00:01:30;10.50;99.90
18291;DHT22;9271;48.590;8.866;2023-04-25T00:03:59;10.50;99.90
18291;DHT22;9271;48.590;8.866;2023-04-25T00:06:26;10.50;99.90
18291;DHT22;9271;48.590;8.866;2023-04-25T00:08:54;10.50;99.90
18291;DHT22;9271;48.590;8.866;2023-04-25T00:11:22;10.40;99.90
18291;DHT22;9271;48.590;8.866;2023-04-25T00:13:49;10.40;99.90
18291;DHT22;9271;48.590;8.866;2023-04-25T00:16:16;10.30;99.90
18291;DHT22;9271;48.590;8.866;2023-04-25T00:18:43;10.00;99.90
18291;DHT22;9271;48.590;8.866;2023-04-25T00:21:11;9.80;99.90
18291;DHT22;9271;48.590;8.866;2023-04-25T00:23:38;9.60;99.90
18291;DHT22;9271;48.590;8.866;2023-04-25T00:26:06;9.90;99.90
18291;DHT22;9271;48.590;8.866;2023-04-25T00:28:33;10.10;99.90
18291;DHT22;9271;48.590;8.866;2023-04-25T00:30:59;10.10;99.90
18291;DHT22;9271;48.590;8.866;2023-04-25T00:33:26;10.20;99.90
18291;DHT22;9271;48.590;8.866;2023-04-25T00:35:53;10.30;99.90
18291;DHT22;9271;48.590;8.866;2023-04-25T00:38:20;10.20;99.90
18291;DHT22;9271;48.590;8.866;2023-04-25T00:40:46;10.00;99.90
18291;DHT22;9271;48.590;8.866;2023-04-25T00:43:15;9.80;99.90
18291;DHT22;9271;48.590;8.866;2023-04-25T00:45:43;10.00;99.90
18291;DHT22;9271;48.590;8.866;2023-04-25T00:48:10;10.00;99.90
18291;DHT22;9271;48.590;8.866;2023-04-25T00:50:37;10.00;99.90
18291;DHT22;9271;48.590;8.866;2023-04-25T00:53:04;10.00;99.90
18291;DHT22;9271;48.590;8.866;2023-04-25T00:55:31;10.20;99.90
18291;DHT22;9271;48.590;8.866;2023-04-25T00:58:00;10.20;99.90
18291;DHT22;9271;48.590;8.866;2023-04-25T01:00:28;10.20;99.90
18291;DHT22;9271;48.590;8.866;2023-04-25T01:02:55;10.20;99.90
18291;DHT22;9271;48.590;8.866;2023-04-25T01:05:22;10.20;99.90
18291;DHT22;9271;48.590;8.866;2023-04-25T01:07:49;10.30;99.90
18291;DHT22;9271;48.590;8.866;2023-04-25T01:10:15;10.20;99.90
18291;DHT22;9271;48.590;8.866;2023-04-25T01:12:42;10.40;99.90
18291;DHT22;9271;48.590;8.866;2023-04-25T01:15:09;10.40;99.90
18291;DHT22;9271;48.590;8.866;2023-04-25T01:17:38;10.20;99.90
18291;DHT22;9271;48.590;8.866;2023-04-25T01:20:08;10.30;99.90
18291;DHT22;9271;48.590;8.866;2023-04-25T01:22:37;9.80;99.90
18291;DHT22;9271;48.590;8.866;2023-04-25T01:25:06;9.70;99.90
18291;DHT22;9271;48.590;8.866;2023-04-25T01:27:33;9.90;99.90
18291;DHT22;9271;48.590;8.866;2023-04-25T01:30:00;10.20;99.90
18291;DHT22;9271;48.590;8.866;2023-04-25T01:32:27;10.40;99.90
18291;DHT22;9271;48.590;8.866;2023-04-25T01:34:53;10.50;99.90
18291;DHT22;9271;48.590;8.866;2023-04-25T01:37:20;10.30;99.90
18291;DHT22;9271;48.590;8.866;2023-04-25T01:39:48;9.90;99.90
18291;DHT22;9271;48.590;8.866;2023-04-25T01:42:15;10.00;99.90
18291;DHT22;9271;48.590;8.866;2023-04-25T01:44:42;10.40;99.90
18291;DHT22;9271;48.590;8.866;2023-04-25T01:47:09;10.20;99.90
18291;DHT22;9271;48.590;8.866;2023-04-25T01:49:35;10.20;99.90
18291;DHT22;9271;48.590;8.866;2023-04-25T01:52:02;10.40;99.90
18291;DHT22;9271;48.590;8.866;2023-04-25T01:54:29;10.50;99.90
18291;DHT22;9271;48.590;8.866;2023-04-25T01:56:58;10.30;99.90
18291;DHT22;9271;48.590;8.866;2023-04-25T01:59:25;10.20;99.90
18291;DHT22;9271;48.590;8.866;2023-04-25T02:01:52;10.30;99.90
18291;DHT22;9271;48.590;8.866;2023-04-25T02:04:18;10.20;99.90
18291;DHT22;9271;48.590;8.866;2023-04-25T02:06:45;10.20;99.90
18291;DHT22;9271;48.590;8.866;2023-04-25T02:09:12;10.10;99.90
18291;DHT22;9271;48.590;8.866;2023-04-25T02:11:38;10.00;99.90
18291;DHT22;9271;48.590;8.866;2023-04-25T02:14:06;9.90;99.90
18291;DHT22;9271;48.590;8.866;2023-04-25T02:16:33;10.00;99.90
18291;DHT22;9271;48.590;8.866;2023-04-25T02:19:01;9.80;99.90
18291;DHT22;9271;48.590;8.866;2023-04-25T02:21:27;9.60;99.90
18291;DHT22;9271;48.590;8.866;2023-04-25T02:23:54;9.60;99.90
18291;DHT22;9271;48.590;8.866;2023-04-25T02:26:21;9.50;99.90
18291;DHT22;9271;48.590;8.866;2023-04-25T02:28:49;9.60;99.90
18291;DHT22;9271;48.590;8.866;2023-04-25T02:31:17;9.50;99.90
18291;DHT22;9271;48.590;8.866;2023-04-25T02:33:44;9.60;99.90
18291;DHT22;9271;48.590;8.866;2023-04-25T02:36:11;9.40;99.90
18291;DHT22;9271;48.590;8.866;2023-04-25T02:38:38;9.40;99.90
18291;DHT22;9271;48.590;8.866;2023-04-25T02:41:05;9.10;99.90
18291;DHT22;9271;48.590;8.866;2023-04-25T02:43:32;9.10;99.90
18291;DHT22;9271;48.590;8.866;2023-04-25T02:45:58;9.30;99.90
18291;DHT22;9271;48.590;8.866;2023-04-25T02:48:26;9.40;99.90
18291;DHT22;9271;48.590;8.866;2023-04-25T02:50:53;9.40;99.90
18291;DHT22;9271;48.590;8.866;2023-04-25T02:53:20;9.40;99.90
18291;DHT22;9271;48.590;8.866;2023-04-25T02:55:47;9.40;99.90
18291;DHT22;9271;48.590;8.866;2023-04-25T02:58:14;9.50;99.90
18291;DHT22;9271;48.590;8.866;2023-04-25T03:00:41;9.70;99.90
18291;DHT22;9271;48.590;8.866;2023-04-25T03:03:07;9.70;99.90
18291;DHT22;9271;48.590;8.866;2023-04-25T03:05:36;9.70;99.90
18291;DHT22;9271;48.590;8.866;2023-04-25T03:08:03;9.90;99.90
18291;DHT22;9271;48.590;8.866;2023-04-25T03:10:29;9.90;99.90
18291;DHT22;9271;48.590;8.866;2023-04-25T03:12:56;9.90;99.90
18291;DHT22;9271;48.590;8.866;2023-04-25T03:15:23;9.90;99.90
18291;DHT22;9271;48.590;8.866;2023-04-25T03:17:49;9.90;99.90
18291;DHT22;9271;48.590;8.866;2023-04-25T03:20:16;9.90;99.90
18291;DHT22;9271;48.590;8.866;2023-04-25T03:22:44;9.90;99.90
18291;DHT22;9271;48.590;8.866;2023-04-25T03:25:11;9.90;99.90
18291;DHT22;9271;48.590;8.866;2023-04-25T03:27:38;9.80;99.90
18291;DHT22;9271;48.590;8.866;2023-04-25T03:30:05;9.80;99.90
18291;DHT22;9271;48.590;8.866;2023-04-25T03:32:34;9.80;99.90
18291;DHT22;9271;48.590;8.866;2023-04-25T03:35:01;9.70;99.90
18291;DHT22;9271;48.590;8.866;2023-04-25T03:37:27;9.40;99.90
18291;DHT22;9271;48.590;8.866;2023-04-25T03:39:55;8.90;99.90
18291;DHT22;9271;48.590;8.866;2023-04-25T03:42:22;8.70;99.90
18291;DHT22;9271;48.590;8.866;2023-04-25T03:44:49;8.70;99.90
18291;DHT22;9271;48.590;8.866;2023-04-25T03:47:16;8.70;99.90
18291;DHT22;9271;48.590;8.866;2023-04-25T03:49:42;8.80;99.90
18291;DHT22;9271;48.590;8.866;2023-04-25T03:52:10;8.80;99.90
18291;DHT22;9271;48.590;8.866;2023-04-25T03:54:36;8.60;99.90
18291;DHT22;9271;48.590;8.866;2023-04-25T03:57:04;8.40;99.90
18291;DHT22;9271;48.590;8.866;2023-04-25T03:59:31;8.60;99.90
18291;DHT22;9271;48.590;8.866;2023-04-25T04:01:58;8.60;99.90
18291;DHT22;9271;48.590;8.866;2023-04-25T04:04:24;8.40;99.90
18291;DHT22;9271;48.590;8.866;2023-04-25T04:06:51;8.30;99.90
18291;DHT22;9271;48.590;8.866;2023-04-25T04:09:18;8.40;99.90
18291;DHT22;9271;48.590;8.866;2023-04-25T04:11:45;8.30;99.90
18291;DHT22;9271;48.590;8.866;2023-04-25T04:14:14;8.00;99.90
18291;DHT22;9271;48.590;8.866;2023-04-25T04:16:41;7.90;99.90
18291;DHT22;9271;48.590;8.866;2023-04-25T04:19:08;8.10;99.90
18291;DHT22;9271;48.590;8.866;2023-04-25T04:21:34;8.20;99.90
18291;DHT22;9271;48.590;8.866;2023-04-25T04:24:01;8.30;99.90
18291;DHT22;9271;48.590;8.866;2023-04-25T04:26:28;8.30;99.90
18291;DHT22;9271;48.590;8.866;2023-04-25T04:28:57;8.40;99.90
18291;DHT22;9271;48.590;8.866;2023-04-25T04:31:26;8.40;99.90
18291;DHT22;9271;48.590;8.866;2023-04-25T04:33:52;8.50;99.90
18291;DHT22;9271;48.590;8.866;2023-04-25T04:36:19;8.70;99.90
18291;DHT22;9271;48.590;8.866;2023-04-25T04:38:47;9.00;99.90
18291;DHT22;9271;48.590;8.866;2023-04-25T04:41:14;9.10;99.90
18291;DHT22;9271;48.590;8.866;2023-04-25T04:43:40;9.20;99.90
18291;DHT22;9271;48.590;8.866;2023-04-25T04:46:08;8.70;99.90
18291;DHT22;9271;48.590;8.866;2023-04-25T04:48:39;8.50;99.90
18291;DHT22;9271;48.590;8.866;2023-04-25T04:51:06;8.20;99.90
18291;DHT22;9271;48.590;8.866;2023-04-25T04:53:33;8.60;99.90
18291;DHT22;9271;48.590;8.866;2023-04-25T04:55:59;9.00;99.90
18291;DHT22;9271;48.590;8.866;2023-04-25T04:58:26;9.20;99.90
18291;DHT22;9271;48.590;8.866;2023-04-25T05:00:54;9.40;99.90
18291;DHT22;9271;48.590;8.866;2023-04-25T05:03:21;9.20;99.90
18291;DHT22;9271;48.590;8.866;2023-04-25T05:05:49;9.20;99.90
18291;DHT22;9271;48.590;8.866;2023-04-25T05:08:15;9.20;99.90
18291;DHT22;9271;48.590;8.866;2023-04-25T05:10:42;9.20;99.90
18291;DHT22;9271;48.590;8.866;2023-04-25T05:13:09;9.50;99.90
18291;DHT22;9271;48.590;8.866;2023-04-25T05:15:35;9.90;99.90
18291;DHT22;9271;48.590;8.866;2023-04-25T05:18:02;10.10;99.90
18291;DHT22;9271;48.590;8.866;2023-04-25T05:20:29;10.10;99.90
18291;DHT22;9271;48.590;8.866;2023-04-25T05:22:57;10.20;99.90
18291;DHT22;9271;48.590;8.866;2023-04-25T05:25:23;10.30;99.90
18291;DHT22;9271;48.590;8.866;2023-04-25T05:27:50;10.40;99.90
18291;DHT22;9271;48.590;8.866;2023-04-25T05:30:17;10.70;99.90
18291;DHT22;9271;48.590;8.866;2023-04-25T05:32:44;11.00;99.90
18291;DHT22;9271;48.590;8.866;2023-04-25T05:35:12;11.20;99.90
18291;DHT22;9271;48.590;8.866;2023-04-25T05:37:38;11.30;99.90
18291;DHT22;9271;48.590;8.866;2023-04-25T05:40:07;11.30;99.90
18291;DHT22;9271;48.590;8.866;2023-04-25T05:42:35;11.50;99.90
18291;DHT22;9271;48.590;8.866;2023-04-25T05:45:01;11.30;99.90
18291;DHT22;9271;48.590;8.866;2023-04-25T05:47:28;11.50;99.80
18291;DHT22;9271;48.590;8.866;2023-04-25T05:49:55;11.70;98.90
18291;DHT22;9271;48.590;8.866;2023-04-25T05:52:21;11.70;98.70
18291;DHT22;9271;48.590;8.866;2023-04-25T05:54:48;11.80;99.20
18291;DHT22;9271;48.590;8.866;2023-04-25T05:57:24;12.10;98.90
18291;DHT22;9271;48.590;8.866;2023-04-25T05:59:51;12.50;98.00
18291;DHT22;9271;48.590;8.866;2023-04-25T06:02:18;12.80;97.40
18291;DHT22;9271;48.590;8.866;2023-04-25T06:04:44;12.60;96.40
18291;DHT22;9271;48.590;8.866;2023-04-25T06:07:11;11.80;97.50
18291;DHT22;9271;48.590;8.866;2023-04-25T06:09:38;11.50;98.40
18291;DHT22;9271;48.590;8.866;2023-04-25T06:12:05;11.40;98.90
18291;DHT22;9271;48.590;8.866;2023-04-25T06:14:34;11.40;98.50
18291;DHT22;9271;48.590;8.866;2023-04-25T06:17:00;11.40;98.90
18291;DHT22;9271;48.590;8.866;2023-04-25T06:19:31;11.40;98.50
18291;DHT22;9271;48.590;8.866;2023-04-25T06:21:58;11.50;98.80
18291;DHT22;9271;48.590;8.866;2023-04-25T06:24:25;11.80;98.40
18291;DHT22;9271;48.590;8.866;2023-04-25T06:26:51;12.00;97.90
18291;DHT22;9271;48.590;8.866;2023-04-25T06:29:18;12.20;97.90
18291;DHT22;9271;48.590;8.866;2023-04-25T06:31:46;12.30;97.30
18291;DHT22;9271;48.590;8.866;2023-04-25T06:34:13;12.20;97.30
18291;DHT22;9271;48.590;8.866;2023-04-25T06:36:40;11.90;97.10
18291;DHT22;9271;48.590;8.866;2023-04-25T06:39:07;11.80;97.00
18291;DHT22;9271;48.590;8.866;2023-04-25T06:41:34;11.60;97.90
18291;DHT22;9271;48.590;8.866;2023-04-25T06:44:01;11.80;98.00
18291;DHT22;9271;48.590;8.866;2023-04-25T06:46:27;11.80;97.70
18291;DHT22;9271;48.590;8.866;2023-04-25T06:48:55;11.70;97.40
18291;DHT22;9271;48.590;8.866;2023-04-25T06:51:22;11.50;97.70
18291;DHT22;9271;48.590;8.866;2023-04-25T06:53:49;11.40;98.60
18291;DHT22;9271;48.590;8.866;2023-04-25T06:56:16;11.40;99.00
18291;DHT22;9271;48.590;8.866;2023-04-25T06:58:43;11.40;98.50
18291;DHT22;9271;48.590;8.866;2023-04-25T07:01:09;11.40;98.10
18291;DHT22;9271;48.590;8.866;2023-04-25T07:03:36;11.40;98.10
18291;DHT22;9271;48.590;8.866;2023-04-25T07:06:05;11.30;98.70
18291;DHT22;9271;48.590;8.866;2023-04-25T07:08:32;11.20;98.80
18291;DHT22;9271;48.590;8.866;2023-04-25T07:10:58;11.20;99.40
18291;DHT22;9271;48.590;8.866;2023-04-25T07:13:25;11.30;99.90
18291;DHT22;9271;48.590;8.866;2023-04-25T07:15:51;11.10;99.80
18291;DHT22;9271;48.590;8.866;2023-04-25T07:18:18;11.30;99.90
18291;DHT22;9271;48.590;8.866;2023-04-25T07:20:45;11.30;99.90
18291;DHT22;9271;48.590;8.866;2023-04-25T07:23:13;11.40;99.30
18291;DHT22;9271;48.590;8.866;2023-04-25T07:25:39;11.10;99.90
18291;DHT22;9271;48.590;8.866;2023-04-25T07:28:06;11.30;99.90
18291;DHT22;9271;48.590;8.866;2023-04-25T07:30:32;11.40;99.90
18291;DHT22;9271;48.590;8.866;2023-04-25T07:33:00;11.60;99.80
18291;DHT22;9271;48.590;8.866;2023-04-25T07:35:26;11.80;99.60
18291;DHT22;9271;48.590;8.866;2023-04-25T07:37:53;11.90;99.90
18291;DHT22;9271;48.590;8.866;2023-04-25T07:40:21;11.90;99.90
18291;DHT22;9271;48.590;8.866;2023-04-25T07:42:48;11.80;99.90
18291;DHT22;9271;48.590;8.866;2023-04-25T07:45:15;11.50;99.90
18291;DHT22;9271;48.590;8.866;2023-04-25T07:47:41;11.20;99.90
18291;DHT22;9271;48.590;8.866;2023-04-25T07:50:09;11.10;99.90
18291;DHT22;9271;48.590;8.866;2023-04-25T07:52:36;10.70;99.80
18291;DHT22;9271;48.590;8.866;2023-04-25T07:55:03;10.80;99.90
18291;DHT22;9271;48.590;8.866;2023-04-25T07:57:31;10.90;99.90
18291;DHT22;9271;48.590;8.866;2023-04-25T07:59:58;10.80;99.90
18291;DHT22;9271;48.590;8.866;2023-04-25T08:02:25;10.60;99.60
18291;DHT22;9271;48.590;8.866;2023-04-25T08:04:53;10.50;99.90
18291;DHT22;9271;48.590;8.866;2023-04-25T08:07:20;10.80;99.90
18291;DHT22;9271;48.590;8.866;2023-04-25T08:09:46;11.00;99.90
18291;DHT22;9271;48.590;8.866;2023-04-25T08:12:13;10.90;99.90
18291;DHT22;9271;48.590;8.866;2023-04-25T08:14:41;10.90;99.90
18291;DHT22;9271;48.590;8.866;2023-04-25T08:17:08;10.80;99.90
18291;DHT22;9271;48.590;8.866;2023-04-25T08:19:35;10.60;99.90
18291;DHT22;9271;48.590;8.866;2023-04-25T08:22:01;10.10;99.90
18291;DHT22;9271;48.590;8.866;2023-04-25T08:24:28;10.10;99.90
18291;DHT22;9271;48.590;8.866;2023-04-25T08:26:54;10.30;99.90
18291;DHT22;9271;48.590;8.866;2023-04-25T08:29:21;10.50;99.90
18291;DHT22;9271;48.590;8.866;2023-04-25T08:31:51;10.50;99.90
18291;DHT22;9271;48.590;8.866;2023-04-25T08:34:18;10.40;99.90
18291;DHT22;9271;48.590;8.866;2023-04-25T08:36:45;10.40;99.90
18291;DHT22;9271;48.590;8.866;2023-04-25T08:39:12;10.40;99.90
18291;DHT22;9271;48.590;8.866;2023-04-25T08:41:40;10.10;99.90
18291;DHT22;9271;48.590;8.866;2023-04-25T08:44:07;10.10;99.90
18291;DHT22;9271;48.590;8.866;2023-04-25T08:46:38;9.80;99.90
18291;DHT22;9271;48.590;8.866;2023-04-25T08:49:07;9.30;99.90
18291;DHT22;9271;48.590;8.866;2023-04-25T08:51:36;9.30;99.90
18291;DHT22;9271;48.590;8.866;2023-04-25T08:54:09;9.50;99.90
18291;DHT22;9271;48.590;8.866;2023-04-25T08:56:37;9.70;99.90
18291;DHT22;9271;48.590;8.866;2023-04-25T08:59:04;9.70;99.90
18291;DHT22;9271;48.590;8.866;2023-04-25T09:01:33;9.20;99.90
18291;DHT22;9271;48.590;8.866;2023-04-25T09:04:00;9.10;99.90
18291;DHT22;9271;48.590;8.866;2023-04-25T09:06:29;9.20;99.90
18291;DHT22;9271;48.590;8.866;2023-04-25T09:09:01;9.40;99.90
18291;DHT22;9271;48.590;8.866;2023-04-25T09:11:28;9.30;99.90
18291;DHT22;9271;48.590;8.866;2023-04-25T09:14:10;9.10;99.90
18291;DHT22;9271;48.590;8.866;2023-04-25T09:16:57;8.90;99.90
18291;DHT22;9271;48.590;8.866;2023-04-25T09:19:26;9.20;99.90
18291;DHT22;9271;48.590;8.866;2023-04-25T09:21:55;9.00;99.90
18291;DHT22;9271;48.590;8.866;2023-04-25T09:24:31;9.10;99.90
18291;DHT22;9271;48.590;8.866;2023-04-25T09:26:57;8.60;99.90
18291;DHT22;9271;48.590;8.866;2023-04-25T09:29:29;8.50;99.90
18291;DHT22;9271;48.590;8.866;2023-04-25T09:32:14;8.20;99.90
18291;DHT22;9271;48.590;8.866;2023-04-25T09:34:43;7.90;99.90
18291;DHT22;9271;48.590;8.866;2023-04-25T09:37:11;7.70;99.90
18291;DHT22;9271;48.590;8.866;2023-04-25T09:39:38;8.10;99.90
18291;DHT22;9271;48.590;8.866;2023-04-25T09:42:05;8.20;99.90
18291;DHT22;9271;48.590;8.866;2023-04-25T09:44:32;7.80;99.90
18291;DHT22;9271;48.590;8.866;2023-04-25T09:46:58;7.00;99.90
18291;DHT22;9271;48.590;8.866;2023-04-25T09:49:26;6.70;99.90
18291;DHT22;9271;48.590;8.866;2023-04-25T09:51:56;6.90;99.90
18291;DHT22;9271;48.590;8.866;2023-04-25T09:54:25;7.20;99.90
18291;DHT22;9271;48.590;8.866;2023-04-25T09:56:53;7.70;99.90
18291;DHT22;9271;48.590;8.866;2023-04-25T09:59:20;7.70;99.90
18291;DHT22;9271;48.590;8.866;2023-04-25T10:01:49;8.10;99.90
18291;DHT22;9271;48.590;8.866;2023-04-25T10:04:19;8.20;99.90
18291;DHT22;9271;48.590;8.866;2023-04-25T10:06:48;8.40;99.90
18291;DHT22;9271;48.590;8.866;2023-04-25T10:09:16;8.40;99.90
18291;DHT22;9271;48.590;8.866;2023-04-25T10:11:45;8.10;99.90
18291;DHT22;9271;48.590;8.866;2023-04-25T10:14:13;8.10;99.90
18291;DHT22;9271;48.590;8.866;2023-04-25T10:16:41;7.50;99.90
18291;DHT22;9271;48.590;8.866;2023-04-25T10:19:08;7.40;99.90
18291;DHT22;9271;48.590;8.866;2023-04-25T10:21:37;7.80;99.90
18291;DHT22;9271;48.590;8.866;2023-04-25T10:24:06;8.10;99.90
18291;DHT22;9271;48.590;8.866;2023-04-25T10:26:33;8.90;99.90
18291;DHT22;9271;48.590;8.866;2023-04-25T10:29:03;9.20;99.90
18291;DHT22;9271;48.590;8.866;2023-04-25T10:31:30;9.00;99.90
18291;DHT22;9271;48.590;8.866;2023-04-25T10:33:57;9.10;99.90
18291;DHT22;9271;48.590;8.866;2023-04-25T10:36:24;9.60;99.90
18291;DHT22;9271;48.590;8.866;2023-04-25T10:38:52;9.60;99.90
18291;DHT22;9271;48.590;8.866;2023-04-25T10:41:20;9.70;99.90
18291;DHT22;9271;48.590;8.866;2023-04-25T10:43:49;10.20;99.90
18291;DHT22;9271;48.590;8.866;2023-04-25T10:46:19;10.20;99.90
18291;DHT22;9271;48.590;8.866;2023-04-25T10:48:49;10.10;99.90
18291;DHT22;9271;48.590;8.866;2023-04-25T10:51:21;9.60;99.90
18291;DHT22;9271;48.590;8.866;2023-04-25T10:53:57;9.40;99.90
18291;DHT22;9271;48.590;8.866;2023-04-25T10:56:26;9.50;99.90
18291;DHT22;9271;48.590;8.866;2023-04-25T10:59:04;9.50;99.90
18291;DHT22;9271;48.590;8.866;2023-04-25T11:01:37;9.10;99.90
18291;DHT22;9271;48.590;8.866;2023-04-25T11:04:04;9.60;99.90
18291;DHT22;9271;48.590;8.866;2023-04-25T11:06:37;10.50;99.90
18291;DHT22;9271;48.590;8.866;2023-04-25T11:09:10;10.90;99.90
18291;DHT22;9271;48.590;8.866;2023-04-25T11:11:38;10.90;99.30
18291;DHT22;9271;48.590;8.866;2023-04-25T11:14:05;9.80;99.90
18291;DHT22;9271;48.590;8.866;2023-04-25T11:16:33;9.90;99.90
18291;DHT22;9271;48.590;8.866;2023-04-25T11:19:01;10.90;99.90
18291;DHT22;9271;48.590;8.866;2023-04-25T11:21:29;11.40;99.90
18291;DHT22;9271;48.590;8.866;2023-04-25T11:23:57;11.60;99.50
18291;DHT22;9271;48.590;8.866;2023-04-25T11:26:24;11.60;98.30
18291;DHT22;9271;48.590;8.866;2023-04-25T11:28:51;11.10;99.30
18291;DHT22;9271;48.590;8.866;2023-04-25T11:31:20;11.20;99.90
18291;DHT22;9271;48.590;8.866;2023-04-25T11:33:48;11.50;99.90
18291;DHT22;9271;48.590;8.866;2023-04-25T11:36:15;11.60;99.90
18291;DHT22;9271;48.590;8.866;2023-04-25T11:38:41;11.80;99.60
18291;DHT22;9271;48.590;8.866;2023-04-25T11:41:08;11.70;99.00
18291;DHT22;9271;48.590;8.866;2023-04-25T11:43:35;11.90;98.40
18291;DHT22;9271;48.590;8.866;2023-04-25T11:46:06;12.10;98.30
18291;DHT22;9271;48.590;8.866;2023-04-25T11:48:37;12.00;98.30
18291;DHT22;9271;48.590;8.866;2023-04-25T11:51:05;11.90;98.70
18291;DHT22;9271;48.590;8.866;2023-04-25T11:53:32;11.80;98.40
18291;DHT22;9271;48.590;8.866;2023-04-25T11:55:59;12.20;99.30
18291;DHT22;9271;48.590;8.866;2023-04-25T11:58:26;12.50;98.90
18291;DHT22;9271;48.590;8.866;2023-04-25T12:00:53;12.10;98.80
18291;DHT22;9271;48.590;8.866;2023-04-25T12:03:23;11.80;99.60
18291;DHT22;9271;48.590;8.866;2023-04-25T12:05:52;11.30;99.90
18291;DHT22;9271;48.590;8.866;2023-04-25T12:08:21;10.90;99.90
18291;DHT22;9271;48.590;8.866;2023-04-25T12:10:47;11.30;99.90
18291;DHT22;9271;48.590;8.866;2023-04-25T12:13:21;11.60;99.90
18291;DHT22;9271;48.590;8.866;2023-04-25T12:15:48;11.80;99.90
18291;DHT22;9271;48.590;8.866;2023-04-25T12:18:18;12.00;99.90
18291;DHT22;9271;48.590;8.866;2023-04-25T12:20:45;12.30;99.90
18291;DHT22;9271;48.590;8.866;2023-04-25T12:23:11;12.40;99.10
18291;DHT22;9271;48.590;8.866;2023-04-25T12:25:41;12.30;99.10
18291;DHT22;9271;48.590;8.866;2023-04-25T12:28:12;12.00;98.30
18291;DHT22;9271;48.590;8.866;2023-04-25T12:30:55;12.10;99.10
18291;DHT22;9271;48.590;8.866;2023-04-25T12:33:23;12.40;98.60
18291;DHT22;9271;48.590;8.866;2023-04-25T12:35:49;12.50;98.20
18291;DHT22;9271;48.590;8.866;2023-04-25T12:38:23;12.50;97.90
18291;DHT22;9271;48.590;8.866;2023-04-25T12:40:52;12.60;98.20
18291;DHT22;9271;48.590;8.866;2023-04-25T12:43:19;12.60;97.40
18291;DHT22;9271;48.590;8.866;2023-04-25T12:45:47;12.70;97.80
18291;DHT22;9271;48.590;8.866;2023-04-25T12:48:14;12.80;97.60
18291;DHT22;9271;48.590;8.866;2023-04-25T12:50:41;12.90;97.40
18291;DHT22;9271;48.590;8.866;2023-04-25T12:53:07;13.00;96.90
18291;DHT22;9271;48.590;8.866;2023-04-25T12:55:34;13.20;97.00
18291;DHT22;9271;48.590;8.866;2023-04-25T12:58:02;13.30;96.70
18291;DHT22;9271;48.590;8.866;2023-04-25T13:00:29;13.30;97.10
18291;DHT22;9271;48.590;8.866;2023-04-25T13:02:57;13.30;96.80
18291;DHT22;9271;48.590;8.866;2023-04-25T13:05:23;13.50;97.00
18291;DHT22;9271;48.590;8.866;2023-04-25T13:07:50;13.60;96.90
18291;DHT22;9271;48.590;8.866;2023-04-25T13:10:17;13.80;96.40
18291;DHT22;9271;48.590;8.866;2023-04-25T13:12:43;13.90;96.10
18291;DHT22;9271;48.590;8.866;2023-04-25T13:15:12;13.70;96.70
18291;DHT22;9271;48.590;8.866;2023-04-25T13:17:40;13.90;95.90
18291;DHT22;9271;48.590;8.866;2023-04-25T13:20:08;14.40;95.80
18291;DHT22;9271;48.590;8.866;2023-04-25T13:22:35;14.80;95.90
18291;DHT22;9271;48.590;8.866;2023-04-25T13:25:03;15.20;95.10
18291;DHT22;9271;48.590;8.866;2023-04-25T13:27:30;15.70;93.80
18291;DHT22;9271;48.590;8.866;2023-04-25T13:29:58;16.00;93.60
18291;DHT22;9271;48.590;8.866;2023-04-25T13:32:26;16.50;93.70
18291;DHT22;9271;48.590;8.866;2023-04-25T13:34:53;15.90;93.30
18291;DHT22;9271;48.590;8.866;2023-04-25T13:37:19;16.00;93.50
18291;DHT22;9271;48.590;8.866;2023-04-25T13:39:49;17.50;92.90
18291;DHT22;9271;48.590;8.866;2023-04-25T13:42:16;20.00;90.00
18291;DHT22;9271;48.590;8.866;2023-04-25T13:44:43;21.90;79.80
18291;DHT22;9271;48.590;8.866;2023-04-25T13:47:09;23.50;72.60
18291;DHT22;9271;48.590;8.866;2023-04-25T13:49:37;24.30;68.80
18291;DHT22;9271;48.590;8.866;2023-04-25T13:52:04;25.10;68.50
18291;DHT22;9271;48.590;8.866;2023-04-25T13:54:31;26.40;63.40
18291;DHT22;9271;48.590;8.866;2023-04-25T13:56:57;26.60;59.50
18291;DHT22;9271;48.590;8.866;2023-04-25T13:59:24;26.00;57.00
18291;DHT22;9271;48.590;8.866;2023-04-25T14:01:51;24.40;59.50
18291;DHT22;9271;48.590;8.866;2023-04-25T14:04:18;22.70;61.60
18291;DHT22;9271;48.590;8.866;2023-04-25T14:06:46;20.50;63.40
18291;DHT22;9271;48.590;8.866;2023-04-25T14:09:12;19.20;66.50
18291;DHT22;9271;48.590;8.866;2023-04-25T14:11:40;17.70;75.80
18291;DHT22;9271;48.590;8.866;2023-04-25T14:14:07;16.00;81.60
18291;DHT22;9271;48.590;8.866;2023-04-25T14:16:34;15.00;86.90
18291;DHT22;9271;48.590;8.866;2023-04-25T14:19:01;14.30;90.90
18291;DHT22;9271;48.590;8.866;2023-04-25T14:21:29;14.50;91.90
18291;DHT22;9271;48.590;8.866;2023-04-25T14:23:58;15.50;91.00
18291;DHT22;9271;48.590;8.866;2023-04-25T14:26:25;15.50;87.70
18291;DHT22;9271;48.590;8.866;2023-04-25T14:28:52;15.70;90.80
18291;DHT22;9271;48.590;8.866;2023-04-25T14:31:18;15.90;90.50
18291;DHT22;9271;48.590;8.866;2023-04-25T14:33:45;16.30;88.40
18291;DHT22;9271;48.590;8.866;2023-04-25T14:36:11;15.90;87.60
18291;DHT22;9271;48.590;8.866;2023-04-25T14:38:39;15.80;90.30
18291;DHT22;9271;48.590;8.866;2023-04-25T14:41:07;16.00;89.40
18291;DHT22;9271;48.590;8.866;2023-04-25T14:43:34;16.10;90.10
18291;DHT22;9271;48.590;8.866;2023-04-25T14:46:01;15.60;86.70
18291;DHT22;9271;48.590;8.866;2023-04-25T14:48:28;15.60;88.20
18291;DHT22;9271;48.590;8.866;2023-04-25T14:50:55;16.00;90.50
18291;DHT22;9271;48.590;8.866;2023-04-25T14:53:23;16.60;89.10
18291;DHT22;9271;48.590;8.866;2023-04-25T14:55:50;16.70;88.20
18291;DHT22;9271;48.590;8.866;2023-04-25T14:58:18;16.80;83.90
18291;DHT22;9271;48.590;8.866;2023-04-25T15:00:45;15.90;84.40
18291;DHT22;9271;48.590;8.866;2023-04-25T15:03:11;15.80;87.50
18291;DHT22;9271;48.590;8.866;2023-04-25T15:05:38;16.20;86.20
18291;DHT22;9271;48.590;8.866;2023-04-25T15:08:05;16.60;83.40
18291;DHT22;9271;48.590;8.866;2023-04-25T15:10:32;17.40;86.00
18291;DHT22;9271;48.590;8.866;2023-04-25T15:12:59;18.30;80.70
18291;DHT22;9271;48.590;8.866;2023-04-25T15:15:27;18.80;79.20
18291;DHT22;9271;48.590;8.866;2023-04-25T15:17:54;19.30;75.90
18291;DHT22;9271;48.590;8.866;2023-04-25T15:20:21;19.60;71.70
18291;DHT22;9271;48.590;8.866;2023-04-25T15:22:48;20.60;69.30
18291;DHT22;9271;48.590;8.866;2023-04-25T15:25:16;20.50;70.10
18291;DHT22;9271;48.590;8.866;2023-04-25T15:27:43;20.30;69.80
18291;DHT22;9271;48.590;8.866;2023-04-25T15:30:13;19.70;72.90
18291;DHT22;9271;48.590;8.866;2023-04-25T15:32:42;18.50;68.80
18291;DHT22;9271;48.590;8.866;2023-04-25T15:35:09;18.00;71.60
18291;DHT22;9271;48.590;8.866;2023-04-25T15:37:37;17.60;76.10
18291;DHT22;9271;48.590;8.866;2023-04-25T15:40:05;17.00;72.10
18291;DHT22;9271;48.590;8.866;2023-04-25T15:42:34;15.70;77.10
18291;DHT22;9271;48.590;8.866;2023-04-25T15:45:01;15.20;83.50
18291;DHT22;9271;48.590;8.866;2023-04-25T15:47:28;15.10;80.90
18291;DHT22;9271;48.590;8.866;2023-04-25T15:49:56;14.70;80.00
18291;DHT22;9271;48.590;8.866;2023-04-25T15:52:22;15.20;81.50
18291;DHT22;9271;48.590;8.866;2023-04-25T15:54:49;14.60;82.30